Time;durP1;ratioP1;P1;durP2;ratioP2;P2;SDS_P1;SDS_P2;PMS_P1;PMS_P2;Temp;Humidity;BMP_temperature;BMP_pressure;BME280_temperature;BME280_humidity;BME280_pressure;Samples;Min_cycle;Max_cycle;Signal;HPM_P1;HPM_P2
2021/08/11 00:01:32;;;;;;;5.72;4.30;;;15.00;99.90;;;;;;5058816;28;20499;-85
2021/08/11 00:04:03;;;;;;;5.15;4.00;;;14.90;99.90;;;;;;5054554;28;20025;-84
2021/08/11 00:06:29;;;;;;;6.03;4.13;;;14.90;99.90;;;;;;5071965;28;20020;-86
2021/08/11 00:08:55;;;;;;;7.07;4.50;;;14.90;99.90;;;;;;5073220;28;20032;-85
2021/08/11 00:11:21;;;;;;;6.57;4.63;;;14.90;99.90;;;;;;5073048;28;20530;-85
2021/08/11 00:13:49;;;;;;;5.88;4.13;;;14.90;99.90;;;;;;5073386;28;20072;-85
2021/08/11 00:16:15;;;;;;;4.90;3.67;;;14.80;99.90;;;;;;5069355;28;20029;-85
2021/08/11 00:18:42;;;;;;;5.28;3.97;;;14.80;99.90;;;;;;5036405;28;20056;-84
2021/08/11 00:21:09;;;;;;;5.18;4.00;;;14.80;99.90;;;;;;5053321;28;20025;-85
2021/08/11 00:23:35;;;;;;;5.50;3.97;;;14.80;99.90;;;;;;5052567;28;20119;-85
2021/08/11 00:26:01;;;;;;;5.97;4.20;;;14.70;99.90;;;;;;5052963;28;20059;-85
2021/08/11 00:28:28;;;;;;;5.50;4.07;;;14.70;99.90;;;;;;5052679;28;20024;-86
2021/08/11 00:30:55;;;;;;;5.93;4.40;;;14.70;99.90;;;;;;5052665;28;20025;-85
2021/08/11 00:33:22;;;;;;;5.78;4.00;;;14.70;99.90;;;;;;5062800;28;20472;-85
2021/08/11 00:35:48;;;;;;;5.03;3.70;;;14.70;99.90;;;;;;5068817;28;20035;-85
2021/08/11 00:38:16;;;;;;;7.13;4.63;;;14.70;99.90;;;;;;5053105;28;20017;-85
2021/08/11 00:40:42;;;;;;;6.20;4.45;;;14.60;99.90;;;;;;5059508;28;20016;-85
2021/08/11 00:43:11;;;;;;;6.13;4.45;;;14.60;99.90;;;;;;5062313;28;20024;-85
2021/08/11 00:45:40;;;;;;;7.95;4.97;;;14.60;99.90;;;;;;5052565;28;20079;-86
2021/08/11 00:48:10;;;;;;;7.22;4.45;;;14.60;99.90;;;;;;5051905;28;20029;-86
2021/08/11 00:50:38;;;;;;;6.00;4.47;;;14.50;99.90;;;;;;5053880;28;20017;-85
2021/08/11 00:53:07;;;;;;;6.80;4.68;;;14.50;99.90;;;;;;5052628;28;20448;-85
2021/08/11 00:55:41;;;;;;;6.40;4.80;;;14.50;99.90;;;;;;5052306;28;20039;-85
2021/08/11 00:58:12;;;;;;;6.30;4.40;;;14.40;99.90;;;;;;5051692;28;20044;-86
2021/08/11 01:00:47;;;;;;;6.15;4.88;;;14.40;99.90;;;;;;5052581;28;20029;-86
2021/08/11 01:03:36;;;;;;;6.75;4.65;;;14.40;99.90;;;;;;5052239;28;20163;-85
2021/08/11 01:06:06;;;;;;;6.03;4.40;;;14.40;99.90;;;;;;5066761;28;20024;-85
2021/08/11 01:08:32;;;;;;;5.60;4.00;;;14.30;99.90;;;;;;5072087;28;20055;-85
2021/08/11 01:10:58;;;;;;;6.00;4.45;;;14.30;99.90;;;;;;5055255;28;20056;-85
2021/08/11 01:13:28;;;;;;;7.50;4.90;;;14.30;99.90;;;;;;5073189;28;20631;-85
2021/08/11 01:15:55;;;;;;;5.75;4.47;;;14.30;99.90;;;;;;5071702;28;20427;-85
2021/08/11 01:18:21;;;;;;;6.00;4.22;;;14.30;99.90;;;;;;5053067;28;20025;-84
2021/08/11 01:21:14;;;;;;;5.63;4.18;;;14.20;99.90;;;;;;5059511;28;20035;-85
2021/08/11 01:23:54;;;;;;;6.47;3.85;;;14.20;99.90;;;;;;5072667;28;20070;-84
2021/08/11 01:27:10;;;;;;;6.38;4.70;;;14.20;99.90;;;;;;5054716;28;20035;-84
2021/08/11 01:30:05;;;;;;;5.93;4.05;;;14.10;99.90;;;;;;5029650;28;20072;-84
2021/08/11 01:32:52;;;;;;;6.97;4.50;;;14.10;99.90;;;;;;5057155;28;20430;-85
2021/08/11 01:35:20;;;;;;;5.72;4.38;;;14.10;99.90;;;;;;5053683;28;20465;-84
2021/08/11 01:37:53;;;;;;;6.18;3.92;;;14.00;99.90;;;;;;5068326;28;20120;-84
2021/08/11 01:40:26;;;;;;;6.72;4.60;;;14.10;99.90;;;;;;5055400;28;20116;-84
2021/08/11 01:42:54;;;;;;;6.05;4.20;;;14.00;99.90;;;;;;5063244;28;20102;-84
2021/08/11 01:45:25;;;;;;;5.93;4.32;;;14.00;99.90;;;;;;5063393;28;20024;-83
2021/08/11 01:47:57;;;;;;;5.55;4.07;;;14.00;99.90;;;;;;5054913;28;20369;-84
2021/08/11 01:50:24;;;;;;;5.40;4.32;;;13.90;99.90;;;;;;5067024;28;20024;-84
2021/08/11 01:52:52;;;;;;;6.18;4.57;;;14.00;99.90;;;;;;5059031;28;20082;-85
2021/08/11 01:55:18;;;;;;;5.82;4.28;;;14.00;99.90;;;;;;5051705;28;20060;-86
2021/08/11 01:57:51;;;;;;;5.60;4.13;;;13.90;99.90;;;;;;5051530;28;20072;-84
2021/08/11 02:00:19;;;;;;;5.90;4.35;;;13.90;99.90;;;;;;5055087;28;20107;-85
2021/08/11 02:02:47;;;;;;;6.18;4.70;;;13.90;99.90;;;;;;5058859;28;20464;-85
2021/08/11 02:05:15;;;;;;;6.75;5.03;;;13.80;99.90;;;;;;5060688;28;20025;-85
2021/08/11 02:07:42;;;;;;;7.55;5.20;;;13.80;99.90;;;;;;5087639;28;20071;-86
2021/08/11 02:10:10;;;;;;;6.78;5.47;;;13.70;99.90;;;;;;5057955;28;20017;-85
2021/08/11 02:12:36;;;;;;;6.47;5.10;;;13.70;99.90;;;;;;5086609;28;20021;-85
2021/08/11 02:15:05;;;;;;;6.82;4.63;;;13.70;99.90;;;;;;5082577;28;20047;-85
2021/08/11 02:17:31;;;;;;;6.75;5.03;;;13.70;99.90;;;;;;5079068;28;20024;-83
2021/08/11 02:19:57;;;;;;;6.88;5.00;;;13.70;99.90;;;;;;5071083;28;20379;-85
2021/08/11 02:22:23;;;;;;;5.82;4.20;;;13.70;99.90;;;;;;5057502;28;20020;-84
2021/08/11 02:24:49;;;;;;;5.38;4.35;;;13.70;99.90;;;;;;5058618;28;20029;-86
2021/08/11 02:27:22;;;;;;;5.93;4.55;;;13.70;99.90;;;;;;5082649;28;20035;-85
2021/08/11 02:30:10;;;;;;;5.35;4.10;;;13.70;99.90;;;;;;5083740;28;20229;-86
2021/08/11 02:32:50;;;;;;;6.38;4.60;;;13.60;99.90;;;;;;5063412;28;20487;-86
2021/08/11 02:35:32;;;;;;;5.45;4.03;;;13.60;99.90;;;;;;5061822;28;20361;-86
2021/08/11 02:38:07;;;;;;;6.53;4.95;;;13.60;99.90;;;;;;5061998;28;20120;-84
2021/08/11 02:40:51;;;;;;;7.40;4.90;;;13.60;99.90;;;;;;5083788;28;20032;-86
2021/08/11 02:43:34;;;;;;;6.60;4.93;;;13.60;99.90;;;;;;5075719;28;20020;-86
2021/08/11 02:46:05;;;;;;;6.78;4.43;;;13.60;99.90;;;;;;5065336;28;20108;-85
2021/08/11 02:48:34;;;;;;;6.38;4.20;;;13.50;99.90;;;;;;5081992;28;20070;-85
2021/08/11 02:51:02;;;;;;;6.47;4.40;;;13.50;99.90;;;;;;5084900;28;20084;-86
2021/08/11 02:53:28;;;;;;;5.47;4.47;;;13.50;99.90;;;;;;5082454;28;20472;-86
2021/08/11 02:55:55;;;;;;;4.90;3.72;;;13.50;99.90;;;;;;5074063;28;20016;-86
2021/08/11 02:58:21;;;;;;;7.05;4.50;;;13.50;99.90;;;;;;5078905;28;20105;-87
2021/08/11 03:00:49;;;;;;;6.72;4.50;;;13.50;99.90;;;;;;5088145;28;20056;-87
2021/08/11 03:03:16;;;;;;;6.72;4.35;;;13.40;99.90;;;;;;5086254;28;20099;-87
2021/08/11 03:05:43;;;;;;;5.93;4.25;;;13.40;99.90;;;;;;5057450;28;20021;-87
2021/08/11 03:08:09;;;;;;;5.22;4.13;;;13.40;99.90;;;;;;5073926;28;20085;-86
2021/08/11 03:10:38;;;;;;;5.57;4.22;;;13.40;99.90;;;;;;5063774;28;20024;-87
2021/08/11 03:13:05;;;;;;;5.05;4.15;;;13.40;99.90;;;;;;5085897;28;20040;-86
2021/08/11 03:15:33;;;;;;;6.15;4.30;;;13.40;99.90;;;;;;5071480;28;20020;-87
2021/08/11 03:17:59;;;;;;;7.45;4.75;;;13.40;99.90;;;;;;5061233;28;20059;-87
2021/08/11 03:20:25;;;;;;;5.78;4.57;;;13.40;99.90;;;;;;5091297;28;20033;-86
2021/08/11 03:22:51;;;;;;;7.53;4.85;;;13.30;99.90;;;;;;5065865;28;20110;-86
2021/08/11 03:25:17;;;;;;;6.38;4.68;;;13.30;99.90;;;;;;5065797;28;20028;-86
2021/08/11 03:27:43;;;;;;;5.45;3.95;;;13.30;99.90;;;;;;5090774;28;20543;-87
2021/08/11 03:30:10;;;;;;;6.22;4.80;;;13.30;99.90;;;;;;5060721;28;20112;-86
2021/08/11 03:32:36;;;;;;;5.72;4.28;;;13.40;99.90;;;;;;5071096;28;20466;-86
2021/08/11 03:35:03;;;;;;;5.55;4.28;;;13.40;99.90;;;;;;5057242;28;20029;-87
2021/08/11 03:37:29;;;;;;;5.20;4.38;;;13.40;99.90;;;;;;5070644;28;20101;-85
2021/08/11 03:39:55;;;;;;;6.10;4.53;;;13.40;99.90;;;;;;5060481;28;20040;-86
2021/08/11 03:42:21;;;;;;;6.25;4.32;;;13.50;99.90;;;;;;5075419;28;20021;-87
2021/08/11 03:44:47;;;;;;;5.90;4.40;;;13.50;99.90;;;;;;5069270;28;20043;-86
2021/08/11 03:47:13;;;;;;;5.85;4.20;;;13.50;99.90;;;;;;5068651;28;20059;-87
2021/08/11 03:49:39;;;;;;;6.82;5.10;;;13.50;99.90;;;;;;5062216;28;20120;-86
2021/08/11 03:52:05;;;;;;;6.13;4.68;;;13.50;99.90;;;;;;5073571;28;20507;-86
2021/08/11 03:54:31;;;;;;;7.85;5.80;;;13.60;99.90;;;;;;5062436;28;20020;-86
2021/08/11 03:56:59;;;;;;;5.85;4.70;;;13.60;99.90;;;;;;5067704;28;20082;-88
2021/08/11 03:59:25;;;;;;;7.18;5.60;;;13.60;99.90;;;;;;5069636;28;20063;-87
2021/08/11 04:01:53;;;;;;;9.40;6.20;;;13.70;99.90;;;;;;5060459;28;20517;-86
2021/08/11 04:04:19;;;;;;;10.55;6.25;;;13.70;99.90;;;;;;5067276;28;20020;-86
2021/08/11 04:06:45;;;;;;;11.63;8.05;;;13.80;99.90;;;;;;5081593;28;20035;-87
2021/08/11 04:09:11;;;;;;;13.65;8.13;;;13.80;99.90;;;;;;5083451;28;20017;-86
2021/08/11 04:11:37;;;;;;;17.40;8.27;;;13.90;99.90;;;;;;5071077;28;20020;-86
2021/08/11 04:14:03;;;;;;;17.35;8.02;;;13.90;99.90;;;;;;5060146;28;20090;-86
2021/08/11 04:16:29;;;;;;;23.15;8.07;;;13.90;99.90;;;;;;5071375;28;20459;-86
2021/08/11 04:18:55;;;;;;;19.55;8.25;;;14.00;99.90;;;;;;5065127;28;20097;-86
2021/08/11 04:21:22;;;;;;;15.88;8.50;;;14.00;99.90;;;;;;5064087;28;20020;-87
2021/08/11 04:23:48;;;;;;;19.40;8.70;;;14.10;99.90;;;;;;5072402;28;20027;-87
2021/08/11 04:26:14;;;;;;;22.73;8.98;;;14.10;99.90;;;;;;5059483;28;20072;-86
2021/08/11 04:28:40;;;;;;;17.83;9.63;;;14.10;99.90;;;;;;5087228;28;20519;-86
2021/08/11 04:31:06;;;;;;;19.38;8.70;;;14.10;99.90;;;;;;5084594;28;20031;-86
2021/08/11 04:33:32;;;;;;;17.67;8.82;;;14.10;99.90;;;;;;5062575;28;20040;-87
2021/08/11 04:36:00;;;;;;;13.55;8.15;;;14.10;99.90;;;;;;5056730;28;20028;-87
2021/08/11 04:38:26;;;;;;;17.48;8.40;;;14.10;99.90;;;;;;5068957;28;20702;-87
2021/08/11 04:40:52;;;;;;;11.82;8.30;;;14.10;99.90;;;;;;5062352;28;20016;-87
2021/08/11 04:43:18;;;;;;;13.75;8.30;;;14.20;99.90;;;;;;5061638;28;20030;-85
2021/08/11 04:45:45;;;;;;;13.05;7.65;;;14.20;99.90;;;;;;5069349;28;20105;-87
2021/08/11 04:48:11;;;;;;;12.60;6.85;;;14.20;99.90;;;;;;5057200;28;20150;-87
2021/08/11 04:50:37;;;;;;;12.85;6.95;;;14.30;99.90;;;;;;5067467;28;20107;-86
2021/08/11 04:53:03;;;;;;;10.95;7.53;;;14.30;99.90;;;;;;5063607;28;20062;-87
2021/08/11 04:55:29;;;;;;;9.13;6.93;;;14.30;99.90;;;;;;5060022;28;20028;-86
2021/08/11 04:57:57;;;;;;;11.30;7.25;;;14.30;99.90;;;;;;5069730;28;20055;-87
2021/08/11 05:00:23;;;;;;;11.18;6.30;;;14.40;99.90;;;;;;5057899;28;20093;-87
2021/08/11 05:02:49;;;;;;;12.60;7.13;;;14.40;99.90;;;;;;5083369;28;20389;-86
2021/08/11 05:05:15;;;;;;;16.15;8.10;;;14.40;99.90;;;;;;5060467;28;20031;-85
2021/08/11 05:07:41;;;;;;;16.40;7.65;;;14.50;99.90;;;;;;5057386;28;20115;-87
2021/08/11 05:10:08;;;;;;;11.30;6.82;;;14.50;99.90;;;;;;5069808;28;20095;-87
2021/08/11 05:12:34;;;;;;;14.07;7.43;;;14.50;99.90;;;;;;5058704;28;20549;-86
2021/08/11 05:15:03;;;;;;;14.85;7.13;;;14.50;99.90;;;;;;5063826;28;20032;-86
2021/08/11 05:17:30;;;;;;;12.95;7.13;;;14.60;99.90;;;;;;5084980;28;20080;-86
2021/08/11 05:19:55;;;;;;;11.27;7.70;;;14.60;99.90;;;;;;5074439;28;20036;-86
2021/08/11 05:22:22;;;;;;;9.40;6.90;;;14.50;99.90;;;;;;5069092;28;20024;-86
2021/08/11 05:24:49;;;;;;;9.30;6.60;;;14.60;99.90;;;;;;5079334;28;20089;-87
2021/08/11 05:27:15;;;;;;;8.35;6.50;;;14.60;99.90;;;;;;5061569;28;20040;-86
2021/08/11 05:29:42;;;;;;;8.45;6.53;;;14.60;99.90;;;;;;5068787;28;20028;-87
2021/08/11 05:32:10;;;;;;;10.27;6.05;;;14.60;99.90;;;;;;5056159;28;20023;-85
2021/08/11 05:34:36;;;;;;;9.05;7.15;;;14.60;99.90;;;;;;5066655;28;20024;-86
2021/08/11 05:37:02;;;;;;;8.50;6.68;;;14.70;99.90;;;;;;5071782;28;20025;-87
2021/08/11 05:39:28;;;;;;;9.50;7.50;;;14.70;99.90;;;;;;5068870;28;20368;-87
2021/08/11 05:41:54;;;;;;;9.45;6.90;;;14.70;99.90;;;;;;5058879;28;20013;-87
2021/08/11 05:44:20;;;;;;;7.88;6.07;;;14.70;99.90;;;;;;5068153;28;20073;-86
2021/08/11 05:46:47;;;;;;;7.40;6.05;;;14.60;99.90;;;;;;5077252;28;20025;-87
2021/08/11 05:49:18;;;;;;;8.00;6.32;;;14.70;99.90;;;;;;5055219;28;20024;-88
2021/08/11 05:51:45;;;;;;;8.45;7.03;;;14.70;99.90;;;;;;5072073;28;20021;-87
2021/08/11 05:54:12;;;;;;;9.68;7.65;;;14.70;99.90;;;;;;5069954;28;20378;-86
2021/08/11 05:56:38;;;;;;;9.10;6.93;;;14.70;99.90;;;;;;5068218;28;20017;-87
2021/08/11 05:59:04;;;;;;;6.75;5.68;;;14.70;99.90;;;;;;5079006;28;20132;-86
2021/08/11 06:01:30;;;;;;;7.80;6.18;;;14.70;99.90;;;;;;5054314;28;20448;-86
2021/08/11 06:04:02;;;;;;;9.38;7.40;;;14.70;99.90;;;;;;5072829;28;20055;-87
2021/08/11 06:06:29;;;;;;;7.90;6.40;;;14.70;99.90;;;;;;5062990;28;20016;-85
2021/08/11 06:08:55;;;;;;;7.60;6.35;;;14.80;99.90;;;;;;5062245;28;20052;-87
2021/08/11 06:11:22;;;;;;;6.68;5.70;;;14.90;99.90;;;;;;5054677;28;20028;-87
2021/08/11 06:13:48;;;;;;;7.47;6.22;;;14.90;99.90;;;;;;5057506;28;20056;-87
2021/08/11 06:16:14;;;;;;;8.05;6.30;;;15.00;99.90;;;;;;5086254;28;20051;-87
2021/08/11 06:18:40;;;;;;;8.88;6.55;;;15.10;99.90;;;;;;5055204;28;20103;-86
2021/08/11 06:21:06;;;;;;;7.75;6.30;;;15.30;99.90;;;;;;5068781;28;20028;-87
2021/08/11 06:23:32;;;;;;;8.93;6.57;;;15.40;99.90;;;;;;5078202;28;20024;-85
2021/08/11 06:25:58;;;;;;;7.82;6.43;;;15.60;99.90;;;;;;5062851;28;20023;-86
2021/08/11 06:28:24;;;;;;;9.63;8.20;;;15.70;99.90;;;;;;5070826;28;20024;-86
2021/08/11 06:30:49;;;;;;;9.32;7.35;;;15.90;99.90;;;;;;5058557;28;20426;-86
2021/08/11 06:33:15;;;;;;;8.77;7.07;;;16.00;99.90;;;;;;5058302;28;20467;-85
2021/08/11 06:35:43;;;;;;;10.23;7.90;;;16.10;99.90;;;;;;5059636;28;20054;-86
2021/08/11 06:38:13;;;;;;;8.95;7.10;;;16.30;99.90;;;;;;5065387;28;20024;-86
2021/08/11 06:40:43;;;;;;;8.70;7.20;;;16.40;99.90;;;;;;5041003;28;20044;-87
2021/08/11 06:43:19;;;;;;;7.75;6.57;;;16.40;99.90;;;;;;5090437;28;20095;-86
2021/08/11 06:45:48;;;;;;;9.60;7.03;;;16.50;99.90;;;;;;5047259;28;20047;-86
2021/08/11 06:48:21;;;;;;;8.35;6.93;;;16.50;99.90;;;;;;5072231;28;20048;-86
2021/08/11 06:50:48;;;;;;;7.72;6.63;;;16.60;99.90;;;;;;5080171;28;20039;-85
2021/08/11 06:53:17;;;;;;;8.40;6.60;;;16.60;99.90;;;;;;5087098;28;20536;-85
2021/08/11 06:55:44;;;;;;;9.00;6.45;;;16.70;99.90;;;;;;5085273;28;20100;-84
2021/08/11 06:58:10;;;;;;;8.77;7.47;;;16.70;99.90;;;;;;5081767;28;20493;-86
2021/08/11 07:00:37;;;;;;;8.13;6.50;;;16.70;99.90;;;;;;5075693;28;20024;-85
2021/08/11 07:03:03;;;;;;;9.02;7.22;;;16.80;99.90;;;;;;5066407;28;20021;-85
2021/08/11 07:05:29;;;;;;;7.88;6.47;;;16.80;99.90;;;;;;5059358;28;20029;-85
2021/08/11 07:07:55;;;;;;;7.28;6.45;;;17.00;99.90;;;;;;5043141;28;20032;-86
2021/08/11 07:10:22;;;;;;;9.77;7.80;;;17.00;99.90;;;;;;5077169;28;20028;-86
2021/08/11 07:12:49;;;;;;;8.25;6.88;;;17.20;99.90;;;;;;5048435;28;20536;-88
2021/08/11 07:15:16;;;;;;;13.57;10.50;;;17.30;99.90;;;;;;5091253;28;20036;-86
2021/08/11 07:17:54;;;;;;;13.70;10.85;;;17.30;99.90;;;;;;5061266;28;20017;-86
2021/08/11 07:20:23;;;;;;;13.23;9.80;;;17.40;99.90;;;;;;5068536;28;20036;-86
2021/08/11 07:22:49;;;;;;;10.05;8.63;;;17.50;99.90;;;;;;5033783;28;20031;-86
2021/08/11 07:25:16;;;;;;;11.43;8.13;;;17.50;99.90;;;;;;5057222;28;20024;-86
2021/08/11 07:27:42;;;;;;;13.70;10.40;;;17.70;99.90;;;;;;5041876;28;20024;-84
2021/08/11 07:30:09;;;;;;;10.90;9.25;;;17.70;99.90;;;;;;5085396;28;20392;-84
2021/08/11 07:32:36;;;;;;;10.82;8.88;;;17.80;99.90;;;;;;5066007;28;20115;-84
2021/08/11 07:35:02;;;;;;;9.88;8.25;;;17.90;99.90;;;;;;5044478;28;20539;-85
2021/08/11 07:37:29;;;;;;;12.48;10.25;;;17.90;99.90;;;;;;5054607;28;20060;-87
2021/08/11 07:39:57;;;;;;;10.05;8.27;;;18.00;99.90;;;;;;5052752;28;20127;-85
2021/08/11 07:42:23;;;;;;;11.35;9.25;;;18.00;99.90;;;;;;5058133;28;20028;-86
2021/08/11 07:44:49;;;;;;;8.57;6.72;;;18.10;99.90;;;;;;5067468;28;20020;-87
2021/08/11 07:47:17;;;;;;;12.30;8.90;;;18.20;99.90;;;;;;5043168;28;20046;-86
2021/08/11 07:49:43;;;;;;;12.48;9.80;;;18.30;99.90;;;;;;5056901;28;20028;-86
2021/08/11 07:52:13;;;;;;;11.65;8.07;;;18.40;99.90;;;;;;5074849;28;20024;-87
2021/08/11 07:54:40;;;;;;;9.75;7.65;;;18.50;99.90;;;;;;5067946;28;20040;-86
2021/08/11 07:57:06;;;;;;;9.02;6.40;;;18.60;99.90;;;;;;5045082;28;20056;-87
2021/08/11 07:59:32;;;;;;;7.70;6.82;;;18.70;99.90;;;;;;5053870;28;20463;-87
2021/08/11 08:02:01;;;;;;;10.07;7.88;;;18.70;99.90;;;;;;5059383;28;20021;-86
2021/08/11 08:04:27;;;;;;;14.68;10.23;;;18.80;99.90;;;;;;5053642;28;20456;-88
2021/08/11 08:06:53;;;;;;;12.10;9.23;;;18.90;99.90;;;;;;5053221;28;20491;-87
2021/08/11 08:09:19;;;;;;;17.45;10.63;;;19.00;99.90;;;;;;5069327;28;20492;-87
2021/08/11 08:11:46;;;;;;;11.80;9.10;;;19.10;99.90;;;;;;5058974;28;20031;-87
2021/08/11 08:14:16;;;;;;;12.80;10.27;;;19.10;99.90;;;;;;5053222;28;20021;-86
2021/08/11 08:16:43;;;;;;;13.40;9.63;;;19.20;99.90;;;;;;5053005;28;20543;-87
2021/08/11 08:19:10;;;;;;;14.35;10.32;;;19.30;99.90;;;;;;5068728;28;20380;-88
2021/08/11 08:21:38;;;;;;;12.13;9.40;;;19.40;99.90;;;;;;5059272;28;20172;-87
2021/08/11 08:24:04;;;;;;;11.52;8.73;;;19.50;99.90;;;;;;5036075;28;20119;-85
2021/08/11 08:26:30;;;;;;;9.93;8.10;;;19.60;99.90;;;;;;5053023;28;20021;-89
2021/08/11 08:28:56;;;;;;;13.70;9.65;;;19.60;99.90;;;;;;5068139;28;20028;-88
2021/08/11 08:31:22;;;;;;;14.43;9.98;;;19.70;99.90;;;;;;5056865;28;20025;-87
2021/08/11 08:33:48;;;;;;;13.93;11.40;;;19.80;99.90;;;;;;5052912;28;20079;-86
2021/08/11 08:36:15;;;;;;;14.90;11.73;;;19.90;99.90;;;;;;5060195;28;20028;-88
2021/08/11 08:38:41;;;;;;;19.60;14.35;;;20.00;99.90;;;;;;5044499;28;20040;-87
2021/08/11 08:41:12;;;;;;;15.50;13.30;;;20.10;99.90;;;;;;5068111;28;20377;-87
2021/08/11 08:43:40;;;;;;;16.20;12.23;;;20.30;99.90;;;;;;5051945;28;20033;-88
2021/08/11 08:46:08;;;;;;;13.63;11.95;;;20.50;99.90;;;;;;5067465;28;20024;-87
2021/08/11 08:48:38;;;;;;;16.17;11.82;;;20.70;99.90;;;;;;5063673;28;20021;-88
2021/08/11 08:51:08;;;;;;;13.07;10.93;;;20.90;99.90;;;;;;5065509;28;20042;-87
2021/08/11 08:53:34;;;;;;;14.63;11.15;;;21.00;99.90;;;;;;5053571;28;20025;-87
2021/08/11 08:56:01;;;;;;;15.77;12.75;;;21.10;99.90;;;;;;5052395;28;20040;-87
2021/08/11 08:58:27;;;;;;;15.55;12.07;;;21.30;99.90;;;;;;5069258;28;20087;-87
2021/08/11 09:00:54;;;;;;;13.00;10.82;;;21.30;99.90;;;;;;5080348;28;20024;-87
2021/08/11 09:03:21;;;;;;;13.10;10.90;;;21.40;99.90;;;;;;5038733;28;20024;-87
2021/08/11 09:05:47;;;;;;;12.32;9.20;;;21.40;99.90;;;;;;5075385;28;20068;-87
2021/08/11 09:08:16;;;;;;;10.93;9.15;;;21.40;99.90;;;;;;5085608;28;20399;-86
2021/08/11 09:10:43;;;;;;;17.02;12.43;;;21.50;99.90;;;;;;5067220;28;20020;-87
2021/08/11 09:13:19;;;;;;;12.32;10.32;;;21.60;99.90;;;;;;5059537;28;20024;-87
2021/08/11 09:15:47;;;;;;;14.93;11.20;;;21.60;99.90;;;;;;5055947;28;20024;-88
2021/08/11 09:18:19;;;;;;;13.23;10.25;;;21.60;99.90;;;;;;5059669;28;20028;-87
2021/08/11 09:20:49;;;;;;;14.30;10.37;;;21.60;99.90;;;;;;5060634;28;20119;-87
2021/08/11 09:23:50;;;;;;;15.50;11.27;;;21.50;99.90;;;;;;5055212;28;20025;-87
2021/08/11 09:26:17;;;;;;;14.05;11.27;;;21.40;99.90;;;;;;5075149;28;20365;-87
2021/08/11 09:28:45;;;;;;;14.18;11.05;;;21.40;99.90;;;;;;5063148;28;20071;-88
2021/08/11 09:31:26;;;;;;;15.70;11.38;;;21.50;99.90;;;;;;5070896;28;20012;-87
2021/08/11 09:33:55;;;;;;;14.38;11.20;;;21.60;99.90;;;;;;5059753;28;20020;-87
2021/08/11 09:36:22;;;;;;;11.95;9.32;;;21.60;99.90;;;;;;5066169;28;20067;-89
2021/08/11 09:39:02;;;;;;;14.20;11.32;;;21.70;99.90;;;;;;5085750;28;20028;-88
2021/08/11 09:41:28;;;;;;;11.60;8.85;;;21.90;99.90;;;;;;5074866;28;20029;-86
2021/08/11 09:44:09;;;;;;;10.73;8.35;;;22.50;99.90;;;;;;5056650;28;20595;-87
2021/08/11 09:46:36;;;;;;;10.50;8.88;;;23.70;99.90;;;;;;5075066;28;20113;-87
2021/08/11 09:49:13;;;;;;;10.75;8.38;;;24.50;99.90;;;;;;5079715;28;20400;-87
2021/08/11 09:52:02;;;;;;;11.90;8.65;;;24.90;99.90;;;;;;5077469;28;20035;-88
2021/08/11 09:54:30;;;;;;;9.25;7.60;;;25.10;99.90;;;;;;5061340;28;20036;-87
2021/08/11 09:56:57;;;;;;;7.72;6.65;;;24.50;99.90;;;;;;5075081;28;20046;-87
2021/08/11 09:59:23;;;;;;;7.88;6.18;;;24.00;99.90;;;;;;5054364;28;20049;-87
2021/08/11 10:01:50;;;;;;;8.27;6.70;;;23.70;99.90;;;;;;5066302;28;20789;-86
2021/08/11 10:04:18;;;;;;;9.10;5.82;;;23.60;99.90;;;;;;5049461;28;20495;-85
2021/08/11 10:06:46;;;;;;;7.88;6.60;;;23.40;99.90;;;;;;5050243;28;20492;-86
2021/08/11 10:09:18;;;;;;;8.52;6.00;;;23.10;99.90;;;;;;5065160;28;20113;-85
2021/08/11 10:11:52;;;;;;;6.88;4.93;;;22.90;99.90;;;;;;5051383;28;20049;-86
2021/08/11 10:14:24;;;;;;;6.57;4.63;;;23.00;99.90;;;;;;5049261;28;20029;-85
2021/08/11 10:16:53;;;;;;;6.25;4.55;;;23.80;99.90;;;;;;5050938;28;20040;-85
2021/08/11 10:19:25;;;;;;;6.93;5.28;;;24.90;99.90;;;;;;5065541;28;20060;-86
2021/08/11 10:21:59;;;;;;;7.32;3.92;;;25.50;99.90;;;;;;5052964;28;20029;-85
2021/08/11 10:24:27;;;;;;;6.32;4.68;;;25.50;99.90;;;;;;5056131;28;20041;-85
2021/08/11 10:26:54;;;;;;;5.40;4.32;;;25.30;99.90;;;;;;5061524;28;20036;-84
2021/08/11 10:29:23;;;;;;;5.40;4.20;;;24.80;99.90;;;;;;5050086;28;20056;-85
2021/08/11 10:31:50;;;;;;;6.00;4.28;;;24.60;99.90;;;;;;5022203;28;20693;-85
2021/08/11 10:34:18;;;;;;;5.32;4.45;;;24.50;99.90;;;;;;5047276;28;20086;-86
2021/08/11 10:36:46;;;;;;;5.40;3.85;;;24.20;99.90;;;;;;5039521;28;20116;-85
2021/08/11 10:39:16;;;;;;;6.18;5.20;;;23.90;99.90;;;;;;5065572;28;20032;-85
2021/08/11 10:41:43;;;;;;;5.93;4.50;;;23.60;99.90;;;;;;5050959;28;20021;-85
2021/08/11 10:44:22;;;;;;;6.03;3.97;;;23.50;99.90;;;;;;5049921;28;20025;-86
2021/08/11 10:47:00;;;;;;;6.40;4.60;;;23.30;99.90;;;;;;5049399;28;20025;-85
2021/08/11 10:49:28;;;;;;;5.43;4.28;;;23.40;99.90;;;;;;5066143;28;20028;-85
2021/08/11 10:51:59;;;;;;;6.18;3.67;;;23.90;99.90;;;;;;5052484;28;20120;-85
2021/08/11 10:54:26;;;;;;;4.80;3.35;;;24.10;99.90;;;;;;5061313;28;20112;-85
2021/08/11 10:56:54;;;;;;;3.97;3.05;;;24.10;99.90;;;;;;5049546;28;20017;-86
2021/08/11 10:59:23;;;;;;;6.35;4.43;;;24.00;99.90;;;;;;5064405;28;20051;-87
2021/08/11 11:01:56;;;;;;;5.88;4.15;;;23.90;99.90;;;;;;5068508;28;20423;-85
2021/08/11 11:04:55;;;;;;;5.93;4.40;;;24.00;99.90;;;;;;5059460;28;20059;-87
2021/08/11 11:07:22;;;;;;;5.55;3.67;;;25.30;99.90;;;;;;5041096;28;20039;-86
2021/08/11 11:10:28;;;;;;;4.55;3.35;;;26.50;99.90;;;;;;5090448;28;20082;-87
2021/08/11 11:12:53;;;;;;;3.85;3.00;;;28.00;99.90;;;;;;5074352;28;20047;-86
2021/08/11 11:15:41;;;;;;;4.00;3.10;;;29.00;99.90;;;;;;5068807;28;20500;-86
2021/08/11 11:18:21;;;;;;;5.18;3.83;;;29.50;99.90;;;;;;5061931;28;20411;-87
2021/08/11 11:20:48;;;;;;;7.38;4.20;;;29.40;99.90;;;;;;5071796;28;20039;-86
2021/08/11 11:23:33;;;;;;;5.68;3.97;;;28.70;99.90;;;;;;5077969;28;20024;-86
2021/08/11 11:26:09;;;;;;;5.20;3.20;;;28.50;99.90;;;;;;5078162;28;20072;-87
2021/08/11 11:29:03;;;;;;;5.63;3.03;;;28.30;99.90;;;;;;5068089;28;20434;-86
2021/08/11 11:31:37;;;;;;;4.63;3.70;;;27.80;99.90;;;;;;5058864;28;20031;-86
2021/08/11 11:34:22;;;;;;;5.57;4.32;;;27.40;99.90;;;;;;5060110;28;20093;-86
2021/08/11 11:36:58;;;;;;;6.00;3.47;;;27.60;99.90;;;;;;5074209;28;20036;-88
2021/08/11 11:39:46;;;;;;;4.70;2.97;;;28.20;99.90;;;;;;5073595;28;20039;-88
2021/08/11 11:42:15;;;;;;;4.82;3.08;;;29.00;98.70;;;;;;5057190;28;20476;-88
2021/08/11 11:44:47;;;;;;;4.97;3.20;;;29.60;98.60;;;;;;5057449;28;20345;-87
2021/08/11 11:47:18;;;;;;;4.85;2.90;;;30.10;97.60;;;;;;5057280;28;20025;-88
2021/08/11 11:49:45;;;;;;;4.18;3.03;;;29.80;96.70;;;;;;5056864;28;20056;-88
2021/08/11 11:52:16;;;;;;;3.60;3.05;;;29.80;97.20;;;;;;5056940;28;20461;-87
2021/08/11 11:54:47;;;;;;;5.38;2.70;;;29.80;97.10;;;;;;5057073;28;20400;-88
2021/08/11 11:57:15;;;;;;;5.32;2.83;;;30.20;96.80;;;;;;5057285;28;20024;-88
2021/08/11 11:59:49;;;;;;;3.70;2.75;;;30.50;96.50;;;;;;5053703;28;20049;-87
2021/08/11 12:02:23;;;;;;;3.72;2.55;;;30.70;96.20;;;;;;5053711;28;20412;-87
2021/08/11 12:05:04;;;;;;;5.15;3.15;;;30.60;96.00;;;;;;5054824;28;20021;-88
2021/08/11 12:07:35;;;;;;;3.75;2.35;;;30.60;95.30;;;;;;5054097;28;20388;-87
2021/08/11 12:10:04;;;;;;;5.05;3.10;;;30.00;95.70;;;;;;5052877;28;20401;-88
2021/08/11 12:12:30;;;;;;;3.33;2.63;;;29.50;95.90;;;;;;5052578;28;20029;-87
2021/08/11 12:15:19;;;;;;;4.43;2.97;;;28.90;96.70;;;;;;5054922;28;20105;-87
2021/08/11 12:17:45;;;;;;;4.07;2.60;;;28.20;96.50;;;;;;5053543;28;20132;-86
2021/08/11 12:20:29;;;;;;;3.55;2.67;;;27.80;97.50;;;;;;5058408;28;20538;-87
2021/08/11 12:22:58;;;;;;;4.43;3.15;;;27.80;97.80;;;;;;5055871;28;20070;-87
2021/08/11 12:25:29;;;;;;;4.60;3.63;;;27.70;97.70;;;;;;5052478;28;20025;-86
2021/08/11 12:28:14;;;;;;;3.33;2.58;;;27.40;96.80;;;;;;5052474;28;20032;-86
2021/08/11 12:30:50;;;;;;;4.47;3.25;;;27.40;97.30;;;;;;5060190;28;20024;-87
2021/08/11 12:33:19;;;;;;;5.00;3.85;;;27.70;97.60;;;;;;5073479;28;20447;-87
2021/08/11 12:35:46;;;;;;;5.82;3.40;;;28.20;96.60;;;;;;5071421;28;20040;-87
2021/08/11 12:38:23;;;;;;;4.97;3.33;;;28.50;96.40;;;;;;5070716;28;20044;-86
2021/08/11 12:40:50;;;;;;;4.38;3.33;;;28.70;96.00;;;;;;5071521;28;20055;-87
2021/08/11 12:43:16;;;;;;;4.22;2.97;;;29.30;95.80;;;;;;5070817;28;20388;-87
2021/08/11 12:45:50;;;;;;;4.88;3.03;;;30.00;95.00;;;;;;5070900;28;20024;-86
2021/08/11 12:48:27;;;;;;;4.28;2.65;;;30.70;94.00;;;;;;5070664;28;20127;-86
2021/08/11 12:50:55;;;;;;;3.65;2.75;;;31.30;92.80;;;;;;5066789;28;20433;-87
2021/08/11 12:53:40;;;;;;;3.97;2.55;;;31.80;92.70;;;;;;5058361;28;20071;-88
2021/08/11 12:56:08;;;;;;;3.58;2.70;;;32.10;92.20;;;;;;5070471;28;20028;-87